Time;durP1;ratioP1;P1;durP2;ratioP2;P2;SDS_P1;SDS_P2;PMS_P1;PMS_P2;Temp;Humidity;BMP_temperature;BMP_pressure;BME280_temperature;BME280_humidity;BME280_pressure;Samples;Min_cycle;Max_cycle;Signal;HPM_P1;HPM_P2
2022/03/04 00:00:46;;;;;;;14.15;6.95;;;3.70;93.40;;;;;;5076446;27;37067;-59
2022/03/04 00:03:13;;;;;;;15.07;7.97;;;3.70;93.40;;;;;;5071841;27;35823;-59
2022/03/04 00:05:43;;;;;;;14.20;6.88;;;3.70;93.50;;;;;;5073601;27;37211;-59
2022/03/04 00:08:10;;;;;;;15.82;7.82;;;3.70;93.60;;;;;;5072019;27;38251;-59
2022/03/04 00:10:38;;;;;;;15.10;8.07;;;3.70;93.80;;;;;;5075128;27;39499;-59
2022/03/04 00:13:06;;;;;;;13.25;7.28;;;3.70;93.70;;;;;;5073772;27;37334;-59
2022/03/04 00:15:34;;;;;;;14.77;7.63;;;3.70;94.00;;;;;;5073741;27;37775;-59
2022/03/04 00:18:02;;;;;;;13.68;7.45;;;3.60;93.70;;;;;;5073151;27;36425;-59
2022/03/04 00:20:29;;;;;;;13.38;7.10;;;3.60;94.00;;;;;;5074146;27;37700;-59
2022/03/04 00:22:58;;;;;;;15.73;7.63;;;3.60;94.10;;;;;;5073086;27;36914;-59
2022/03/04 00:25:25;;;;;;;15.93;7.45;;;3.60;94.10;;;;;;5071830;27;36499;-59
2022/03/04 00:27:53;;;;;;;15.18;7.45;;;3.60;94.10;;;;;;5072716;27;38971;-59
2022/03/04 00:30:20;;;;;;;16.33;7.65;;;3.50;94.20;;;;;;5074560;27;36336;-59
2022/03/04 00:32:48;;;;;;;15.80;7.93;;;3.60;94.20;;;;;;5072150;27;36886;-59
2022/03/04 00:35:15;;;;;;;15.60;7.82;;;3.60;94.20;;;;;;5073557;27;36793;-59
2022/03/04 00:37:42;;;;;;;17.55;8.85;;;3.60;94.20;;;;;;5070595;27;37716;-59
2022/03/04 00:40:14;;;;;;;14.02;7.85;;;3.50;94.10;;;;;;5072100;27;38484;-59
2022/03/04 00:42:42;;;;;;;15.02;8.10;;;3.50;94.20;;;;;;5071313;27;37876;-59
2022/03/04 00:45:10;;;;;;;16.48;8.50;;;3.50;94.00;;;;;;5071922;27;37819;-59
2022/03/04 00:47:37;;;;;;;15.55;8.30;;;3.50;94.00;;;;;;5074724;27;37349;-59
2022/03/04 00:50:07;;;;;;;17.45;8.52;;;3.50;94.10;;;;;;5072676;27;37042;-59
2022/03/04 00:52:34;;;;;;;15.40;7.65;;;3.50;94.30;;;;;;5073929;27;37272;-59
2022/03/04 00:55:01;;;;;;;15.68;8.48;;;3.50;94.20;;;;;;5074599;27;36693;-59
2022/03/04 00:57:30;;;;;;;15.55;7.53;;;3.50;94.30;;;;;;5073670;27;37561;-59
2022/03/04 00:59:57;;;;;;;16.33;8.35;;;3.50;94.40;;;;;;5075029;27;38200;-59
2022/03/04 01:02:25;;;;;;;16.88;7.85;;;3.40;94.30;;;;;;5075659;27;35965;-59
2022/03/04 01:04:52;;;;;;;14.75;8.13;;;3.40;94.40;;;;;;5078322;27;36365;-59
2022/03/04 01:07:19;;;;;;;16.15;8.27;;;3.40;94.40;;;;;;5074238;27;39399;-59
2022/03/04 01:09:47;;;;;;;16.45;8.45;;;3.40;94.40;;;;;;5076994;27;38749;-59
2022/03/04 01:12:14;;;;;;;18.25;9.15;;;3.40;94.40;;;;;;5074303;27;37053;-59
2022/03/04 01:14:43;;;;;;;16.00;8.43;;;3.40;94.30;;;;;;5077030;27;37583;-59
2022/03/04 01:17:10;;;;;;;18.75;9.00;;;3.40;94.40;;;;;;5076005;27;38092;-59
2022/03/04 01:19:37;;;;;;;17.17;7.90;;;3.40;94.40;;;;;;5074490;27;37224;-59
2022/03/04 01:22:05;;;;;;;15.18;7.97;;;3.40;94.50;;;;;;5076546;27;37743;-59
2022/03/04 01:24:32;;;;;;;19.60;9.13;;;3.40;94.50;;;;;;5074677;27;36464;-59
2022/03/04 01:26:59;;;;;;;16.95;9.20;;;3.30;94.40;;;;;;5074870;27;36887;-59
2022/03/04 01:29:27;;;;;;;16.58;9.40;;;3.30;94.30;;;;;;5075127;27;37407;-59
2022/03/04 01:31:55;;;;;;;16.63;8.88;;;3.20;94.30;;;;;;5076004;27;35940;-59
2022/03/04 01:34:23;;;;;;;17.13;9.32;;;3.30;94.30;;;;;;5076242;27;35302;-59
2022/03/04 01:36:50;;;;;;;19.00;9.52;;;3.20;94.40;;;;;;5075788;27;38206;-59
2022/03/04 01:39:17;;;;;;;16.88;9.32;;;3.20;94.20;;;;;;5075734;27;37250;-59
2022/03/04 01:41:45;;;;;;;17.42;9.27;;;3.10;94.20;;;;;;5076805;27;35921;-59
2022/03/04 01:44:12;;;;;;;18.77;10.25;;;3.10;94.30;;;;;;5075269;27;36648;-59
2022/03/04 01:46:39;;;;;;;16.30;9.00;;;3.10;94.30;;;;;;5073013;27;38174;-59
2022/03/04 01:49:08;;;;;;;17.05;9.95;;;3.00;94.30;;;;;;5073782;27;37320;-59
2022/03/04 01:51:35;;;;;;;21.45;10.43;;;3.00;94.50;;;;;;5076536;27;37354;-59
2022/03/04 01:54:03;;;;;;;19.40;9.80;;;3.00;94.70;;;;;;5076902;27;37515;-59
2022/03/04 01:56:31;;;;;;;17.50;10.13;;;2.90;94.70;;;;;;5073610;27;38015;-59
2022/03/04 01:58:59;;;;;;;17.15;9.15;;;2.90;94.80;;;;;;5077482;27;35885;-59
2022/03/04 02:01:26;;;;;;;16.35;10.05;;;2.90;94.80;;;;;;5073483;27;38607;-59
2022/03/04 02:03:54;;;;;;;17.23;10.23;;;2.90;94.80;;;;;;5075580;27;37289;-59
2022/03/04 02:06:23;;;;;;;18.38;9.73;;;2.90;95.00;;;;;;5075707;27;36506;-59
2022/03/04 02:08:50;;;;;;;18.00;9.35;;;2.90;94.90;;;;;;5075173;27;36120;-59
2022/03/04 02:11:17;;;;;;;15.45;9.60;;;2.80;94.90;;;;;;5076071;27;37103;-59
2022/03/04 02:13:44;;;;;;;19.13;10.38;;;2.80;95.00;;;;;;5074944;27;37645;-59
2022/03/04 02:16:18;;;;;;;24.48;10.55;;;2.80;95.00;;;;;;5073824;27;36404;-59
2022/03/04 02:18:46;;;;;;;21.02;10.13;;;2.80;95.10;;;;;;5074959;27;36996;-59
2022/03/04 02:21:14;;;;;;;23.48;11.35;;;2.80;95.30;;;;;;5074297;27;37571;-60
2022/03/04 02:23:43;;;;;;;18.13;10.32;;;2.70;95.10;;;;;;5077331;27;38012;-59
2022/03/04 02:26:10;;;;;;;19.38;10.48;;;2.70;95.50;;;;;;5072993;27;37588;-59
2022/03/04 02:28:38;;;;;;;23.08;10.52;;;2.70;95.40;;;;;;5075848;27;37839;-59
2022/03/04 02:31:05;;;;;;;17.50;10.18;;;2.60;95.40;;;;;;5074151;27;37406;-59
2022/03/04 02:33:32;;;;;;;21.75;10.85;;;3.00;95.60;;;;;;5076345;27;36223;-59
2022/03/04 02:36:00;;;;;;;20.23;9.90;;;2.60;95.40;;;;;;5073830;27;36401;-59
2022/03/04 02:38:27;;;;;;;23.25;10.90;;;2.60;95.50;;;;;;5075399;27;37617;-59
2022/03/04 02:40:56;;;;;;;20.75;10.65;;;2.60;95.50;;;;;;5072555;27;37960;-59
2022/03/04 02:43:23;;;;;;;19.83;10.32;;;2.60;95.40;;;;;;5074841;27;36653;-59
2022/03/04 02:45:51;;;;;;;21.70;11.90;;;2.60;95.50;;;;;;5075342;27;36368;-59
2022/03/04 02:48:19;;;;;;;19.40;10.25;;;2.50;95.40;;;;;;5074752;27;37728;-59
2022/03/04 02:50:46;;;;;;;22.25;12.35;;;2.60;95.40;;;;;;5072903;27;37067;-59
2022/03/04 02:53:14;;;;;;;19.88;10.30;;;2.50;95.40;;;;;;5074087;27;35607;-59
2022/03/04 02:55:41;;;;;;;21.75;11.25;;;2.50;95.40;;;;;;5075442;27;37107;-59
2022/03/04 02:58:10;;;;;;;22.42;11.15;;;2.50;95.70;;;;;;5072459;27;38057;-59
2022/03/04 03:00:37;;;;;;;23.15;11.25;;;2.40;95.50;;;;;;5072810;27;37291;-59
2022/03/04 03:03:05;;;;;;;18.23;9.77;;;2.40;95.50;;;;;;5072442;27;36947;-59
2022/03/04 03:05:32;;;;;;;22.35;11.32;;;2.40;95.50;;;;;;5073921;27;37561;-59
2022/03/04 03:07:59;;;;;;;24.20;11.05;;;2.40;95.50;;;;;;5071941;27;37349;-59
2022/03/04 03:10:27;;;;;;;22.00;11.65;;;2.30;95.70;;;;;;5076555;27;37842;-59
2022/03/04 03:12:54;;;;;;;20.95;10.80;;;2.30;95.60;;;;;;5074396;27;36928;-59
2022/03/04 03:15:23;;;;;;;24.33;11.57;;;2.40;95.50;;;;;;5073576;27;37949;-59
2022/03/04 03:17:50;;;;;;;21.25;10.73;;;2.40;95.30;;;;;;5073283;27;37310;-59
2022/03/04 03:20:18;;;;;;;20.85;10.75;;;2.40;95.20;;;;;;5073508;27;35999;-59
2022/03/04 03:22:45;;;;;;;22.85;11.38;;;2.30;95.00;;;;;;5073181;27;38793;-59
2022/03/04 03:25:13;;;;;;;19.17;9.70;;;2.30;94.90;;;;;;5074916;27;37612;-59
2022/03/04 03:27:40;;;;;;;20.85;10.85;;;2.30;94.90;;;;;;5073453;27;38083;-60
2022/03/04 03:30:09;;;;;;;20.38;10.68;;;2.20;95.00;;;;;;5074691;27;37290;-59
2022/03/04 03:32:38;;;;;;;20.08;10.75;;;2.20;95.20;;;;;;5073586;27;36660;-59
2022/03/04 03:35:07;;;;;;;19.27;10.60;;;2.20;95.20;;;;;;5074957;27;38161;-58
2022/03/04 03:37:35;;;;;;;20.92;10.70;;;2.20;95.20;;;;;;5072339;27;36756;-59
2022/03/04 03:40:04;;;;;;;19.00;11.27;;;2.20;95.20;;;;;;5073157;27;38847;-59
2022/03/04 03:42:31;;;;;;;22.50;10.98;;;2.20;95.30;;;;;;5073051;27;36762;-59
2022/03/04 03:44:58;;;;;;;21.45;11.00;;;2.20;95.30;;;;;;5074388;27;37584;-59
2022/03/04 03:47:26;;;;;;;20.70;11.27;;;2.10;95.30;;;;;;5074561;27;38967;-59
2022/03/04 03:49:54;;;;;;;20.65;10.50;;;2.10;95.30;;;;;;5074575;27;36003;-59
2022/03/04 03:52:22;;;;;;;22.90;10.80;;;2.20;95.20;;;;;;5071949;27;35662;-59
2022/03/04 03:54:49;;;;;;;20.17;10.63;;;2.10;95.10;;;;;;5074364;27;36941;-57
2022/03/04 03:57:16;;;;;;;20.45;10.52;;;2.10;95.10;;;;;;5072400;27;37387;-59
2022/03/04 03:59:44;;;;;;;20.83;10.93;;;2.10;95.10;;;;;;5075579;27;36219;-59
2022/03/04 04:02:11;;;;;;;21.10;10.07;;;2.10;95.20;;;;;;5073123;27;37703;-59
2022/03/04 04:04:39;;;;;;;20.60;11.45;;;2.10;95.10;;;;;;5074796;27;37349;-59
2022/03/04 04:07:09;;;;;;;20.80;11.52;;;2.10;95.10;;;;;;5073295;27;38408;-59
2022/03/04 04:09:37;;;;;;;23.52;11.43;;;2.10;95.00;;;;;;5070934;27;38026;-60
2022/03/04 04:12:05;;;;;;;18.63;10.23;;;2.00;95.10;;;;;;5070493;27;38061;-59
2022/03/04 04:14:33;;;;;;;20.85;11.65;;;2.00;95.10;;;;;;5073993;27;36475;-59
2022/03/04 04:17:00;;;;;;;23.65;11.48;;;1.90;95.30;;;;;;5073808;27;36304;-59
2022/03/04 04:19:28;;;;;;;20.67;10.60;;;1.80;95.40;;;;;;5072447;27;37100;-59
2022/03/04 04:21:55;;;;;;;21.80;10.45;;;1.80;95.70;;;;;;5072737;27;37714;-59
2022/03/04 04:24:24;;;;;;;20.98;10.00;;;1.70;95.90;;;;;;5073290;27;36264;-59
2022/03/04 04:26:53;;;;;;;21.45;11.27;;;1.80;95.90;;;;;;5074159;27;36054;-59
2022/03/04 04:29:20;;;;;;;21.15;11.82;;;1.80;95.80;;;;;;5078421;27;37024;-59
2022/03/04 04:31:47;;;;;;;21.50;11.02;;;1.80;95.70;;;;;;5077953;27;37010;-59
2022/03/04 04:34:15;;;;;;;18.38;10.95;;;1.80;95.80;;;;;;5077066;27;37636;-59
2022/03/04 04:36:43;;;;;;;20.00;10.82;;;1.80;95.80;;;;;;5076672;27;37386;-59
2022/03/04 04:39:10;;;;;;;24.42;12.45;;;1.80;95.80;;;;;;5073967;27;35956;-59
2022/03/04 04:41:39;;;;;;;22.58;11.98;;;1.80;95.90;;;;;;5078143;27;36724;-58
2022/03/04 04:44:06;;;;;;;22.23;11.60;;;1.80;95.80;;;;;;5077839;27;38484;-59
2022/03/04 04:46:33;;;;;;;23.42;12.20;;;1.80;95.80;;;;;;5075301;27;37218;-59
2022/03/04 04:49:01;;;;;;;22.70;12.05;;;1.70;96.00;;;;;;5077384;27;36786;-60
2022/03/04 04:51:28;;;;;;;22.95;11.68;;;1.70;96.20;;;;;;5076040;27;36450;-59
2022/03/04 04:53:56;;;;;;;22.35;11.98;;;1.60;96.40;;;;;;5077262;27;38016;-60
2022/03/04 04:56:23;;;;;;;23.50;12.35;;;1.60;96.60;;;;;;5075579;27;37409;-59
2022/03/04 04:58:52;;;;;;;27.35;12.27;;;1.60;96.60;;;;;;5075100;27;37260;-59
2022/03/04 05:01:19;;;;;;;23.05;12.82;;;1.60;96.80;;;;;;5077312;27;37569;-59
2022/03/04 05:03:46;;;;;;;23.75;12.02;;;1.70;96.70;;;;;;5076786;27;38129;-59
2022/03/04 05:06:14;;;;;;;23.90;12.35;;;1.60;96.80;;;;;;5077306;27;37409;-60
2022/03/04 05:08:41;;;;;;;25.40;13.45;;;1.60;97.00;;;;;;5077030;27;38560;-59
2022/03/04 05:11:08;;;;;;;24.42;12.13;;;1.70;97.10;;;;;;5075467;27;35574;-59
2022/03/04 05:13:36;;;;;;;26.65;12.73;;;1.60;97.10;;;;;;5075657;27;38819;-60
2022/03/04 05:16:04;;;;;;;22.55;12.75;;;2.00;97.20;;;;;;5075276;27;36377;-60
2022/03/04 05:18:32;;;;;;;22.73;11.50;;;1.60;97.30;;;;;;5075573;27;38553;-59
2022/03/04 05:21:00;;;;;;;22.20;11.18;;;1.60;97.50;;;;;;5075686;27;35705;-59
2022/03/04 05:26:12;;;;;;;21.65;11.70;;;1.80;97.70;;;;;;5076767;27;38962;-60
2022/03/04 05:28:39;;;;;;;23.13;12.38;;;1.50;97.70;;;;;;5074141;27;37918;-59
2022/03/04 05:31:08;;;;;;;23.45;11.98;;;1.50;97.60;;;;;;5075388;27;36739;-59
2022/03/04 05:33:35;;;;;;;23.10;13.38;;;1.60;97.80;;;;;;5075005;27;39995;-59
2022/03/04 05:36:03;;;;;;;25.30;13.20;;;1.50;97.90;;;;;;5073279;27;36582;-59
2022/03/04 05:38:30;;;;;;;24.83;13.23;;;1.50;97.90;;;;;;5073250;27;37855;-59
2022/03/04 05:40:58;;;;;;;24.45;12.88;;;1.60;98.00;;;;;;5072948;27;37881;-59
2022/03/04 05:43:25;;;;;;;22.05;12.82;;;1.50;97.90;;;;;;5077119;27;36488;-62
2022/03/04 05:45:52;;;;;;;23.50;11.82;;;1.50;97.90;;;;;;5072867;27;42380;-59
2022/03/04 05:48:21;;;;;;;23.05;12.40;;;1.50;98.10;;;;;;5074529;27;37448;-59
2022/03/04 05:50:48;;;;;;;26.63;14.10;;;1.50;98.10;;;;;;5076794;27;37074;-59
2022/03/04 05:53:16;;;;;;;24.48;12.00;;;1.50;98.10;;;;;;5074675;27;36472;-58
2022/03/04 05:55:43;;;;;;;23.92;12.35;;;1.60;98.30;;;;;;5074511;27;42378;-58
2022/03/04 05:58:10;;;;;;;27.23;13.23;;;1.50;98.30;;;;;;5072481;27;37363;-58
2022/03/04 06:00:38;;;;;;;23.98;12.82;;;1.50;98.20;;;;;;5075895;27;39327;-58
2022/03/04 06:03:06;;;;;;;26.10;13.23;;;1.50;98.20;;;;;;5073805;27;37665;-58
2022/03/04 06:05:35;;;;;;;26.02;14.90;;;1.60;98.30;;;;;;5070949;27;37997;-58
2022/03/04 06:08:02;;;;;;;26.42;13.73;;;1.60;98.40;;;;;;5073184;27;37445;-58
2022/03/04 06:10:29;;;;;;;26.73;14.18;;;1.60;98.20;;;;;;5074056;27;37537;-58
2022/03/04 06:12:57;;;;;;;27.55;13.88;;;1.60;98.10;;;;;;5075182;27;37031;-58
2022/03/04 06:15:24;;;;;;;24.88;13.18;;;1.60;98.30;;;;;;5074481;27;38806;-58
2022/03/04 06:17:52;;;;;;;25.55;13.20;;;1.60;98.10;;;;;;5073268;27;36373;-58
2022/03/04 06:20:20;;;;;;;25.73;12.70;;;1.60;98.00;;;;;;5074996;27;33859;-58
2022/03/04 06:22:51;;;;;;;24.65;14.10;;;1.60;98.20;;;;;;5072615;27;37548;-58
2022/03/04 06:25:19;;;;;;;25.45;12.45;;;1.50;98.30;;;;;;5076598;27;38074;-53
2022/03/04 06:27:54;;;;;;;23.73;13.63;;;1.50;98.30;;;;;;5075372;27;38168;-53
2022/03/04 06:30:22;;;;;;;24.90;13.32;;;1.50;98.50;;;;;;5075155;27;37679;-54
2022/03/04 06:32:51;;;;;;;23.50;13.80;;;1.50;98.40;;;;;;5074442;27;37409;-52
2022/03/04 06:35:18;;;;;;;26.08;12.18;;;1.50;98.50;;;;;;5074372;27;37569;-53
2022/03/04 06:37:46;;;;;;;25.50;13.15;;;1.50;98.40;;;;;;5073839;27;38070;-54
2022/03/04 06:40:15;;;;;;;26.05;13.38;;;1.50;98.40;;;;;;5075132;27;36963;-52
2022/03/04 06:42:46;;;;;;;24.70;13.73;;;1.50;98.50;;;;;;5073860;27;36521;-53
2022/03/04 06:45:13;;;;;;;23.20;13.43;;;1.50;98.40;;;;;;5074226;27;37260;-53
2022/03/04 06:47:40;;;;;;;25.20;13.60;;;1.50;98.60;;;;;;5073346;27;37823;-53
2022/03/04 06:50:08;;;;;;;22.75;13.90;;;1.60;98.70;;;;;;5075062;27;36909;-54
2022/03/04 06:52:36;;;;;;;27.38;14.38;;;1.60;98.70;;;;;;5072895;27;36958;-53
2022/03/04 06:55:04;;;;;;;23.23;13.95;;;1.70;98.70;;;;;;5072758;27;38676;-55
2022/03/04 06:57:33;;;;;;;22.73;13.18;;;1.60;98.40;;;;;;5070863;27;38321;-55
2022/03/04 07:00:00;;;;;;;24.58;13.52;;;1.70;98.60;;;;;;5073865;27;37969;-55
2022/03/04 07:02:28;;;;;;;24.98;14.13;;;1.70;98.50;;;;;;5073620;27;36503;-55
2022/03/04 07:04:55;;;;;;;22.92;14.20;;;1.80;98.40;;;;;;5072591;27;38018;-54
2022/03/04 07:07:22;;;;;;;22.45;13.13;;;1.90;98.40;;;;;;5071851;27;37713;-54
2022/03/04 07:09:50;;;;;;;24.67;13.38;;;1.80;98.30;;;;;;5073049;27;38318;-54
2022/03/04 07:12:17;;;;;;;24.20;13.52;;;1.80;98.40;;;;;;5072753;27;37642;-55
2022/03/04 07:14:46;;;;;;;24.80;13.30;;;1.80;98.40;;;;;;5073504;27;37737;-54
2022/03/04 07:17:14;;;;;;;23.65;13.70;;;1.70;98.30;;;;;;5072618;27;38905;-53
2022/03/04 07:19:41;;;;;;;24.33;13.38;;;1.70;98.30;;;;;;5074297;27;36895;-54
2022/03/04 07:22:08;;;;;;;23.58;13.95;;;1.70;98.40;;;;;;5073266;27;35960;-53
2022/03/04 07:24:36;;;;;;;20.83;13.05;;;1.80;98.60;;;;;;5070004;27;36975;-54
2022/03/04 07:27:03;;;;;;;25.50;13.82;;;1.80;98.60;;;;;;5072050;27;36287;-55
2022/03/04 07:29:31;;;;;;;24.23;13.85;;;1.80;98.70;;;;;;5070822;27;36285;-54
2022/03/04 07:32:00;;;;;;;21.60;13.35;;;1.90;98.60;;;;;;5070724;27;38649;-54
2022/03/04 07:34:27;;;;;;;22.50;12.20;;;1.90;98.60;;;;;;5069757;27;37782;-55
2022/03/04 07:36:54;;;;;;;22.73;13.27;;;2.00;98.40;;;;;;5073947;27;36228;-54
2022/03/04 07:39:22;;;;;;;24.73;14.55;;;2.00;98.40;;;;;;5071187;27;36841;-55
2022/03/04 07:41:50;;;;;;;22.73;14.13;;;2.00;98.30;;;;;;5072663;27;39882;-53
2022/03/04 07:44:18;;;;;;;25.85;14.18;;;2.10;98.20;;;;;;5070882;27;37876;-54
2022/03/04 07:46:45;;;;;;;24.77;14.75;;;2.80;98.20;;;;;;5072202;27;36299;-54
2022/03/04 07:49:14;;;;;;;24.08;14.18;;;2.10;98.00;;;;;;5074163;27;39172;-55
2022/03/04 07:51:41;;;;;;;23.50;13.85;;;2.10;97.90;;;;;;5072900;27;37152;-54
2022/03/04 07:54:09;;;;;;;22.85;13.38;;;2.10;97.90;;;;;;5071263;27;37387;-54
2022/03/04 07:56:36;;;;;;;24.55;13.55;;;2.10;98.00;;;;;;5070306;27;36318;-53
2022/03/04 07:59:04;;;;;;;23.77;13.95;;;2.10;98.00;;;;;;5073433;27;36806;-54
2022/03/04 08:01:31;;;;;;;23.50;14.05;;;2.20;97.80;;;;;;5071238;27;37733;-53
2022/03/04 08:03:58;;;;;;;24.25;14.18;;;2.30;97.60;;;;;;5071585;27;36858;-53
2022/03/04 08:06:27;;;;;;;25.58;13.90;;;2.30;97.40;;;;;;5071737;27;38027;-53
2022/03/04 08:08:54;;;;;;;27.45;13.57;;;2.40;97.40;;;;;;5070148;27;41725;-54
2022/03/04 08:11:22;;;;;;;23.25;14.15;;;2.30;97.30;;;;;;5071927;27;37224;-54
2022/03/04 08:13:49;;;;;;;24.52;14.02;;;2.30;97.50;;;;;;5071949;27;37767;-54
2022/03/04 08:16:16;;;;;;;20.77;12.55;;;2.30;97.50;;;;;;5073290;27;37226;-55
2022/03/04 08:18:43;;;;;;;23.27;13.73;;;2.40;97.40;;;;;;5072722;27;35530;-54
2022/03/04 08:21:11;;;;;;;22.38;12.55;;;2.30;97.50;;;;;;5070772;27;38018;-53
2022/03/04 08:23:40;;;;;;;23.23;12.75;;;2.30;97.40;;;;;;5071682;27;37714;-54
2022/03/04 08:26:07;;;;;;;23.10;12.98;;;2.40;97.40;;;;;;5071722;27;37477;-54
2022/03/04 08:28:35;;;;;;;20.75;13.02;;;2.40;97.20;;;;;;5076034;27;36871;-53
2022/03/04 08:31:10;;;;;;;23.77;13.10;;;2.40;97.30;;;;;;5074470;27;38423;-53
2022/03/04 08:33:38;;;;;;;24.65;13.18;;;2.50;97.50;;;;;;5074462;27;36482;-55
2022/03/04 08:36:06;;;;;;;24.75;13.80;;;2.50;97.50;;;;;;5073687;27;38795;-53
2022/03/04 08:38:33;;;;;;;22.83;13.05;;;2.50;97.50;;;;;;5069496;27;36861;-54
2022/03/04 08:41:02;;;;;;;21.60;13.25;;;2.50;97.50;;;;;;5069767;27;37604;-53
2022/03/04 08:43:31;;;;;;;23.15;13.48;;;2.60;97.60;;;;;;5072003;27;38303;-53
2022/03/04 08:45:58;;;;;;;22.48;12.52;;;2.60;97.40;;;;;;5072484;27;38183;-55
2022/03/04 08:48:25;;;;;;;24.10;13.35;;;2.60;97.20;;;;;;5074003;27;35622;-55
2022/03/04 08:50:53;;;;;;;20.48;12.48;;;2.70;97.30;;;;;;5072441;27;37630;-54
2022/03/04 08:53:20;;;;;;;19.75;11.48;;;2.80;97.20;;;;;;5073427;27;38704;-53
2022/03/04 08:55:50;;;;;;;21.95;12.10;;;2.80;96.90;;;;;;5074249;27;36531;-53
2022/03/04 08:58:19;;;;;;;21.05;11.30;;;2.90;96.60;;;;;;5073980;27;37749;-53
2022/03/04 09:00:46;;;;;;;21.73;12.02;;;2.90;96.50;;;;;;5074701;27;38322;-53
2022/03/04 09:03:13;;;;;;;22.27;12.25;;;3.00;96.90;;;;;;5074729;27;36313;-54
2022/03/04 09:05:41;;;;;;;20.02;11.93;;;3.20;96.30;;;;;;5074065;27;36912;-53
2022/03/04 09:08:08;;;;;;;23.08;12.38;;;3.50;95.80;;;;;;5072580;27;37691;-52
2022/03/04 09:10:36;;;;;;;22.63;12.25;;;3.70;95.20;;;;;;5074676;27;37535;-53
2022/03/04 09:13:04;;;;;;;22.33;13.05;;;3.80;94.90;;;;;;5075786;27;39368;-54
2022/03/04 09:15:33;;;;;;;20.65;13.15;;;3.80;94.80;;;;;;5076863;27;37943;-54
2022/03/04 09:18:01;;;;;;;22.63;12.77;;;3.80;94.70;;;;;;5076764;27;36953;-53
2022/03/04 09:20:28;;;;;;;19.88;11.57;;;3.70;94.50;;;;;;5076137;27;37805;-54
2022/03/04 09:22:57;;;;;;;18.70;11.77;;;3.80;94.50;;;;;;5076336;27;37680;-54
2022/03/04 09:25:26;;;;;;;17.42;11.65;;;3.70;94.70;;;;;;5076284;27;39197;-53
2022/03/04 09:27:54;;;;;;;18.95;11.20;;;4.00;95.00;;;;;;5075901;27;36737;-55
2022/03/04 09:30:22;;;;;;;20.08;11.05;;;4.40;94.70;;;;;;5077234;27;37567;-54
2022/03/04 09:32:50;;;;;;;20.20;11.55;;;4.90;93.60;;;;;;5075351;27;36555;-54
2022/03/04 09:35:18;;;;;;;17.90;11.20;;;5.50;92.30;;;;;;5075514;27;36143;-55
2022/03/04 09:37:46;;;;;;;19.85;10.68;;;6.00;91.10;;;;;;5075748;27;35650;-54
2022/03/04 09:40:13;;;;;;;18.50;12.05;;;6.40;89.80;;;;;;5076259;27;39473;-55
2022/03/04 09:42:41;;;;;;;20.50;13.18;;;6.80;88.90;;;;;;5075450;27;39164;-54
2022/03/04 09:45:09;;;;;;;17.75;11.82;;;7.10;88.00;;;;;;5071436;27;37465;-54
2022/03/04 09:47:37;;;;;;;16.95;11.10;;;7.40;87.20;;;;;;5076435;27;35523;-55
2022/03/04 09:50:07;;;;;;;16.27;10.13;;;7.50;85.40;;;;;;5075685;27;37811;-55
2022/03/04 09:52:35;;;;;;;17.08;11.60;;;7.70;82.70;;;;;;5073891;27;37809;-53
2022/03/04 09:55:02;;;;;;;17.65;11.60;;;7.70;82.30;;;;;;5076618;27;38685;-54
2022/03/04 09:57:30;;;;;;;17.48;11.30;;;8.00;81.60;;;;;;5074633;27;39291;-55
2022/03/04 09:59:57;;;;;;;16.52;11.35;;;8.20;80.80;;;;;;5075747;27;38588;-55
2022/03/04 10:02:25;;;;;;;16.85;11.25;;;8.20;78.40;;;;;;5076842;27;36492;-53
2022/03/04 10:05:03;;;;;;;16.63;10.63;;;8.20;77.50;;;;;;5075956;27;39625;-54
2022/03/04 10:07:41;;;;;;;15.90;10.57;;;8.40;76.30;;;;;;5074033;27;37542;-54
2022/03/04 10:10:13;;;;;;;16.92;10.57;;;8.40;74.40;;;;;;5076753;27;37686;-53
2022/03/04 10:12:49;;;;;;;17.95;10.70;;;8.60;75.60;;;;;;5076869;27;37513;-55
2022/03/04 10:15:17;;;;;;;15.38;10.18;;;8.80;73.50;;;;;;5076270;27;37550;-54
2022/03/04 10:17:59;;;;;;;14.73;9.95;;;9.10;73.30;;;;;;5074857;27;37264;-55
2022/03/04 10:20:42;;;;;;;16.17;11.43;;;9.30;67.30;;;;;;5074848;27;36375;-55
2022/03/04 10:23:16;;;;;;;14.57;9.77;;;9.50;67.80;;;;;;5074016;27;37910;-55
2022/03/04 10:25:46;;;;;;;15.02;11.10;;;9.60;66.90;;;;;;5075867;27;37495;-55
2022/03/04 10:28:14;;;;;;;18.35;11.55;;;9.80;65.70;;;;;;5073769;27;35530;-54
2022/03/04 10:30:47;;;;;;;18.25;10.93;;;10.10;64.20;;;;;;5077234;27;37719;-55
2022/03/04 10:33:17;;;;;;;14.90;10.63;;;10.40;63.30;;;;;;5075664;27;38004;-54
2022/03/04 10:35:45;;;;;;;16.23;10.70;;;10.60;61.70;;;;;;5075979;27;37018;-55
2022/03/04 10:38:25;;;;;;;19.48;11.68;;;10.50;61.90;;;;;;5075512;27;36813;-55
2022/03/04 10:40:52;;;;;;;15.77;10.38;;;10.40;61.00;;;;;;5074874;27;37284;-55
2022/03/04 10:43:24;;;;;;;14.85;10.38;;;10.30;62.40;;;;;;5075653;27;37731;-55
2022/03/04 10:46:03;;;;;;;17.88;11.73;;;10.30;62.90;;;;;;5074162;27;37830;-54
2022/03/04 10:48:31;;;;;;;16.80;12.02;;;10.30;60.50;;;;;;5076598;27;36365;-53
2022/03/04 10:51:03;;;;;;;15.55;10.57;;;10.30;61.60;;;;;;5074600;27;38079;-54
2022/03/04 10:53:34;;;;;;;15.85;10.77;;;10.30;61.30;;;;;;5074254;27;37480;-56
2022/03/04 10:56:04;;;;;;;15.02;10.48;;;10.30;61.30;;;;;;5075220;27;37609;-55
2022/03/04 10:58:33;;;;;;;14.55;10.30;;;10.30;61.90;;;;;;5074931;27;36351;-60
2022/03/04 11:01:05;;;;;;;15.02;9.77;;;10.30;62.50;;;;;;5076132;27;38144;-60
2022/03/04 11:03:35;;;;;;;15.45;9.63;;;10.10;62.00;;;;;;5074893;27;39613;-60
2022/03/04 11:06:04;;;;;;;14.73;9.70;;;10.00;60.40;;;;;;5075026;27;37457;-60
2022/03/04 11:08:33;;;;;;;16.30;9.82;;;10.00;61.70;;;;;;5073876;27;35541;-60
2022/03/04 11:11:01;;;;;;;15.88;11.10;;;10.10;60.70;;;;;;5074487;27;36634;-60
2022/03/04 11:13:30;;;;;;;13.88;9.57;;;10.30;60.20;;;;;;5076069;27;38799;-60
2022/03/04 11:15:57;;;;;;;16.15;10.40;;;10.50;59.40;;;;;;5075875;27;36200;-60
2022/03/04 11:18:24;;;;;;;13.25;10.15;;;10.70;59.40;;;;;;5074176;27;36892;-61
2022/03/04 11:20:54;;;;;;;15.93;10.30;;;10.70;58.40;;;;;;5075339;27;38026;-60
2022/03/04 11:23:24;;;;;;;15.63;10.02;;;10.70;57.70;;;;;;5073486;27;39290;-60
2022/03/04 11:25:58;;;;;;;15.00;9.88;;;10.90;57.20;;;;;;5074374;27;37461;-60
2022/03/04 11:28:28;;;;;;;16.35;10.45;;;11.20;56.00;;;;;;5073938;27;36514;-60
2022/03/04 11:31:00;;;;;;;16.83;10.60;;;11.50;54.90;;;;;;5074234;27;37502;-60
2022/03/04 11:33:29;;;;;;;14.25;10.23;;;11.70;53.80;;;;;;5075536;27;38678;-60
2022/03/04 11:36:08;;;;;;;14.82;9.70;;;11.70;52.80;;;;;;5073055;27;36229;-60
2022/03/04 11:39:09;;;;;;;15.27;10.23;;;11.90;52.60;;;;;;5073803;27;37697;-60
2022/03/04 11:41:41;;;;;;;14.48;9.85;;;12.20;50.90;;;;;;5072828;27;38427;-60
2022/03/04 11:44:17;;;;;;;15.32;9.48;;;12.50;49.90;;;;;;5074715;27;37570;-60
2022/03/04 11:46:49;;;;;;;14.45;9.60;;;12.70;49.40;;;;;;5075765;27;36974;-60
2022/03/04 11:49:47;;;;;;;14.23;9.65;;;12.50;50.80;;;;;;5074032;27;37394;-60
2022/03/04 11:52:24;;;;;;;15.27;10.05;;;12.10;51.60;;;;;;5075246;27;38292;-60
2022/03/04 11:55:16;;;;;;;15.50;10.20;;;11.70;53.30;;;;;;5072857;27;37942;-60
2022/03/04 11:57:46;;;;;;;14.65;10.10;;;11.30;53.50;;;;;;5074227;27;20137;-60
2022/03/04 12:00:37;;;;;;;14.30;9.38;;;11.00;56.10;;;;;;5073685;27;36844;-59
2022/03/04 12:03:19;;;;;;;14.68;9.88;;;10.70;56.90;;;;;;5072679;27;37535;-60
2022/03/04 12:05:48;;;;;;;14.63;9.93;;;10.60;57.80;;;;;;5070950;27;38710;-60
2022/03/04 12:08:15;;;;;;;15.68;10.25;;;10.40;57.70;;;;;;5074727;27;37697;-60
2022/03/04 12:10:47;;;;;;;14.82;9.77;;;10.20;58.50;;;;;;5074788;27;37311;-60
2022/03/04 12:13:19;;;;;;;16.58;10.65;;;10.10;59.30;;;;;;5072786;27;39605;-60
2022/03/04 12:15:52;;;;;;;15.23;10.05;;;10.10;59.70;;;;;;5073612;27;38651;-60
2022/03/04 12:18:26;;;;;;;14.90;10.02;;;10.00;60.20;;;;;;5073245;27;36454;-61
2022/03/04 12:21:15;;;;;;;18.40;10.35;;;9.90;60.30;;;;;;5072510;27;35661;-60
2022/03/04 12:23:52;;;;;;;15.75;9.85;;;9.90;61.10;;;;;;5073896;27;43220;-61
2022/03/04 12:26:26;;;;;;;15.70;10.63;;;9.80;60.60;;;;;;5070824;27;37669;-60
2022/03/04 12:29:03;;;;;;;18.27;11.93;;;9.80;61.60;;;;;;5073302;27;37522;-60
2022/03/04 12:31:38;;;;;;;16.20;10.95;;;9.70;62.10;;;;;;5072729;27;37018;-61
2022/03/04 12:34:17;;;;;;;16.23;10.60;;;9.60;62.80;;;;;;5072965;27;38034;-61
2022/03/04 12:36:45;;;;;;;17.55;11.30;;;9.50;63.10;;;;;;5072174;27;37927;-57
2022/03/04 12:39:12;;;;;;;18.75;10.90;;;9.40;62.40;;;;;;5072224;27;37583;-58
2022/03/04 12:41:40;;;;;;;18.95;11.85;;;9.30;63.40;;;;;;5072582;27;35602;-61
2022/03/04 12:44:10;;;;;;;19.25;12.00;;;9.20;63.50;;;;;;5073642;27;37221;-61
2022/03/04 12:46:38;;;;;;;18.52;11.52;;;9.10;64.50;;;;;;5073737;27;38229;-61
2022/03/04 12:49:06;;;;;;;16.65;11.20;;;9.10;65.10;;;;;;5078198;27;37490;-58